sensor_id;sensor_type;location;lat;lon;timestamp;pressure;altitude;pressure_sealevel;temperature;humidity
11525;BME280;5819;49.648;8.330;2022-12-29T00:01:45;99734.38;;;10.33;100.00
11525;BME280;5819;49.648;8.330;2022-12-29T00:04:13;99730.28;;;10.45;100.00
11525;BME280;5819;49.648;8.330;2022-12-29T00:06:42;99716.19;;;10.66;100.00
11525;BME280;5819;49.648;8.330;2022-12-29T00:09:11;99731.81;;;10.82;100.00
11525;BME280;5819;49.648;8.330;2022-12-29T00:11:40;99726.25;;;10.72;100.00
11525;BME280;5819;49.648;8.330;2022-12-29T00:14:08;99733.16;;;10.56;100.00
11525;BME280;5819;49.648;8.330;2022-12-29T00:16:55;99727.91;;;10.57;100.00
11525;BME280;5819;49.648;8.330;2022-12-29T00:19:23;99725.38;;;10.56;100.00
11525;BME280;5819;49.648;8.330;2022-12-29T00:22:09;99720.16;;;10.56;100.00
11525;BME280;5819;49.648;8.330;2022-12-29T00:24:55;99715.09;;;10.70;100.00
11525;BME280;5819;49.648;8.330;2022-12-29T00:27:41;99715.94;;;10.70;100.00
11525;BME280;5819;49.648;8.330;2022-12-29T00:30:33;99704.09;;;10.80;100.00
11525;BME280;5819;49.648;8.330;2022-12-29T00:33:28;99705.59;;;10.69;100.00
11525;BME280;5819;49.648;8.330;2022-12-29T00:36:16;99708.69;;;10.60;100.00
11525;BME280;5819;49.648;8.330;2022-12-29T00:38:48;99708.53;;;10.63;100.00
11525;BME280;5819;49.648;8.330;2022-12-29T00:41:34;99706.91;;;10.45;100.00
11525;BME280;5819;49.648;8.330;2022-12-29T00:44:17;99704.53;;;10.73;100.00
11525;BME280;5819;49.648;8.330;2022-12-29T00:46:45;99700.56;;;10.66;100.00
11525;BME280;5819;49.648;8.330;2022-12-29T00:49:13;99701.06;;;10.72;100.00
11525;BME280;5819;49.648;8.330;2022-12-29T00:52:02;99692.13;;;10.78;100.00
11525;BME280;5819;49.648;8.330;2022-12-29T00:54:32;99697.31;;;10.78;100.00
11525;BME280;5819;49.648;8.330;2022-12-29T00:57:00;99685.22;;;10.77;100.00
11525;BME280;5819;49.648;8.330;2022-12-29T00:59:31;99683.91;;;11.01;100.00
11525;BME280;5819;49.648;8.330;2022-12-29T01:01:59;99692.53;;;10.86;100.00
11525;BME280;5819;49.648;8.330;2022-12-29T01:04:28;99691.50;;;10.73;100.00
11525;BME280;5819;49.648;8.330;2022-12-29T01:06:55;99685.72;;;10.68;100.00
11525;BME280;5819;49.648;8.330;2022-12-29T01:09:23;99678.69;;;10.86;100.00
11525;BME280;5819;49.648;8.330;2022-12-29T01:12:10;99687.66;;;10.80;100.00
11525;BME280;5819;49.648;8.330;2022-12-29T01:14:39;99672.63;;;10.85;100.00
11525;BME280;5819;49.648;8.330;2022-12-29T01:17:07;99675.00;;;10.90;100.00
11525;BME280;5819;49.648;8.330;2022-12-29T01:19:35;99682.88;;;11.19;100.00
11525;BME280;5819;49.648;8.330;2022-12-29T01:22:03;99687.94;;;11.22;100.00
11525;BME280;5819;49.648;8.330;2022-12-29T01:24:31;99678.75;;;11.00;100.00
11525;BME280;5819;49.648;8.330;2022-12-29T01:26:58;99683.53;;;11.07;100.00
11525;BME280;5819;49.648;8.330;2022-12-29T01:29:26;99676.25;;;11.14;100.00
11525;BME280;5819;49.648;8.330;2022-12-29T01:31:55;99677.50;;;11.22;100.00
11525;BME280;5819;49.648;8.330;2022-12-29T01:34:23;99680.16;;;11.37;100.00
11525;BME280;5819;49.648;8.330;2022-12-29T01:36:51;99682.19;;;11.16;100.00
11525;BME280;5819;49.648;8.330;2022-12-29T01:39:18;99677.25;;;11.11;100.00
11525;BME280;5819;49.648;8.330;2022-12-29T01:41:46;99690.97;;;10.99;100.00
11525;BME280;5819;49.648;8.330;2022-12-29T01:44:49;99668.63;;;11.11;100.00
11525;BME280;5819;49.648;8.330;2022-12-29T01:47:25;99673.13;;;11.07;100.00
11525;BME280;5819;49.648;8.330;2022-12-29T01:49:56;99672.63;;;11.16;100.00
11525;BME280;5819;49.648;8.330;2022-12-29T01:52:27;99678.75;;;11.00;100.00
11525;BME280;5819;49.648;8.330;2022-12-29T01:54:57;99685.91;;;10.96;100.00
11525;BME280;5819;49.648;8.330;2022-12-29T01:57:29;99681.34;;;11.00;100.00
11525;BME280;5819;49.648;8.330;2022-12-29T02:00:02;99678.75;;;11.15;100.00
11525;BME280;5819;49.648;8.330;2022-12-29T02:02:40;99682.38;;;11.13;100.00
11525;BME280;5819;49.648;8.330;2022-12-29T02:05:13;99689.16;;;11.15;100.00
11525;BME280;5819;49.648;8.330;2022-12-29T02:07:44;99688.22;;;11.32;100.00
11525;BME280;5819;49.648;8.330;2022-12-29T02:10:13;99683.28;;;11.12;100.00
11525;BME280;5819;49.648;8.330;2022-12-29T02:12:40;99690.44;;;10.93;100.00
11525;BME280;5819;49.648;8.330;2022-12-29T02:15:08;99691.34;;;11.07;100.00
11525;BME280;5819;49.648;8.330;2022-12-29T02:17:50;99683.72;;;11.20;100.00
11525;BME280;5819;49.648;8.330;2022-12-29T02:20:46;99675.66;;;11.09;100.00
11525;BME280;5819;49.648;8.330;2022-12-29T02:23:32;99679.28;;;11.06;100.00
11525;BME280;5819;49.648;8.330;2022-12-29T02:26:33;99672.31;;;11.07;100.00
11525;BME280;5819;49.648;8.330;2022-12-29T02:29:35;99664.81;;;11.16;100.00
11525;BME280;5819;49.648;8.330;2022-12-29T02:32:11;99661.25;;;11.49;100.00
11525;BME280;5819;49.648;8.330;2022-12-29T02:34:51;99657.81;;;11.33;100.00
11525;BME280;5819;49.648;8.330;2022-12-29T02:37:25;99651.66;;;11.49;100.00
11525;BME280;5819;49.648;8.330;2022-12-29T02:40:04;99666.25;;;11.22;100.00
11525;BME280;5819;49.648;8.330;2022-12-29T02:42:35;99662.66;;;11.09;100.00
11525;BME280;5819;49.648;8.330;2022-12-29T02:45:05;99663.72;;;11.20;100.00
11525;BME280;5819;49.648;8.330;2022-12-29T02:47:40;99648.69;;;11.25;100.00
11525;BME280;5819;49.648;8.330;2022-12-29T02:50:16;99662.53;;;11.42;100.00
11525;BME280;5819;49.648;8.330;2022-12-29T02:52:49;99651.53;;;11.66;100.00
11525;BME280;5819;49.648;8.330;2022-12-29T02:55:18;99647.44;;;11.62;100.00
11525;BME280;5819;49.648;8.330;2022-12-29T02:57:45;99648.63;;;11.57;100.00
11525;BME280;5819;49.648;8.330;2022-12-29T03:00:15;99659.28;;;11.52;100.00
11525;BME280;5819;49.648;8.330;2022-12-29T03:03:12;99642.56;;;11.56;100.00
11525;BME280;5819;49.648;8.330;2022-12-29T03:05:57;99644.78;;;11.48;100.00
11525;BME280;5819;49.648;8.330;2022-12-29T03:08:31;99642.16;;;11.48;100.00
11525;BME280;5819;49.648;8.330;2022-12-29T03:11:05;99631.31;;;11.56;100.00
11525;BME280;5819;49.648;8.330;2022-12-29T03:13:56;99624.59;;;11.52;100.00
11525;BME280;5819;49.648;8.330;2022-12-29T03:16:46;99615.22;;;11.79;100.00
11525;BME280;5819;49.648;8.330;2022-12-29T03:19:20;99620.84;;;11.71;100.00
11525;BME280;5819;49.648;8.330;2022-12-29T03:21:52;99618.84;;;11.61;100.00
11525;BME280;5819;49.648;8.330;2022-12-29T03:24:45;99616.13;;;11.48;100.00
11525;BME280;5819;49.648;8.330;2022-12-29T03:27:19;99629.44;;;11.28;100.00
11525;BME280;5819;49.648;8.330;2022-12-29T03:29:52;99609.84;;;11.37;100.00
11525;BME280;5819;49.648;8.330;2022-12-29T03:32:24;99607.88;;;11.56;100.00
11525;BME280;5819;49.648;8.330;2022-12-29T03:34:57;99595.41;;;11.61;100.00
11525;BME280;5819;49.648;8.330;2022-12-29T03:37:32;99601.47;;;11.61;100.00
11525;BME280;5819;49.648;8.330;2022-12-29T03:40:03;99591.03;;;11.61;99.30
11525;BME280;5819;49.648;8.330;2022-12-29T03:42:33;99592.91;;;11.30;100.00
11525;BME280;5819;49.648;8.330;2022-12-29T03:45:04;99581.78;;;11.42;99.76
11525;BME280;5819;49.648;8.330;2022-12-29T03:47:33;99584.19;;;11.31;99.83
11525;BME280;5819;49.648;8.330;2022-12-29T03:50:03;99587.84;;;11.42;99.02
11525;BME280;5819;49.648;8.330;2022-12-29T03:52:36;99586.75;;;11.46;99.13
11525;BME280;5819;49.648;8.330;2022-12-29T03:55:06;99588.06;;;11.53;98.54
11525;BME280;5819;49.648;8.330;2022-12-29T03:57:34;99584.00;;;11.63;97.28
11525;BME280;5819;49.648;8.330;2022-12-29T04:00:07;99585.06;;;11.45;97.29
11525;BME280;5819;49.648;8.330;2022-12-29T04:02:40;99594.28;;;11.51;97.97
11525;BME280;5819;49.648;8.330;2022-12-29T04:05:15;99587.13;;;11.54;97.44
11525;BME280;5819;49.648;8.330;2022-12-29T04:07:43;99597.19;;;11.60;96.46
11525;BME280;5819;49.648;8.330;2022-12-29T04:10:12;99593.38;;;11.66;97.67
11525;BME280;5819;49.648;8.330;2022-12-29T04:12:39;99593.97;;;11.71;96.36
11525;BME280;5819;49.648;8.330;2022-12-29T04:15:09;99606.22;;;11.55;97.42
11525;BME280;5819;49.648;8.330;2022-12-29T04:17:37;99588.13;;;11.96;94.58
11525;BME280;5819;49.648;8.330;2022-12-29T04:20:06;99583.66;;;11.84;94.67
11525;BME280;5819;49.648;8.330;2022-12-29T04:23:03;99583.09;;;11.93;94.86
11525;BME280;5819;49.648;8.330;2022-12-29T04:25:33;99580.69;;;11.90;94.95
11525;BME280;5819;49.648;8.330;2022-12-29T04:28:02;99574.84;;;11.86;95.63
11525;BME280;5819;49.648;8.330;2022-12-29T04:30:53;99584.16;;;11.90;95.20
11525;BME280;5819;49.648;8.330;2022-12-29T04:33:39;99591.81;;;11.63;96.77
11525;BME280;5819;49.648;8.330;2022-12-29T04:36:07;99582.06;;;11.81;95.82
11525;BME280;5819;49.648;8.330;2022-12-29T04:38:38;99575.75;;;11.85;95.92
11525;BME280;5819;49.648;8.330;2022-12-29T04:41:05;99573.44;;;11.95;95.38
11525;BME280;5819;49.648;8.330;2022-12-29T04:43:35;99572.13;;;11.88;96.20
11525;BME280;5819;49.648;8.330;2022-12-29T04:46:23;99568.78;;;12.00;95.34
11525;BME280;5819;49.648;8.330;2022-12-29T04:49:00;99587.47;;;11.78;96.59
11525;BME280;5819;49.648;8.330;2022-12-29T04:51:46;99572.88;;;12.04;96.10
11525;BME280;5819;49.648;8.330;2022-12-29T04:54:17;99574.53;;;11.77;96.70
11525;BME280;5819;49.648;8.330;2022-12-29T04:56:52;99575.41;;;11.91;96.24
11525;BME280;5819;49.648;8.330;2022-12-29T04:59:20;99574.66;;;11.75;97.22
11525;BME280;5819;49.648;8.330;2022-12-29T05:01:49;99571.38;;;11.86;96.12
11525;BME280;5819;49.648;8.330;2022-12-29T05:04:18;99584.22;;;11.89;97.09
11525;BME280;5819;49.648;8.330;2022-12-29T05:06:46;99587.66;;;11.75;98.24
11525;BME280;5819;49.648;8.330;2022-12-29T05:09:13;99579.84;;;11.89;97.30
11525;BME280;5819;49.648;8.330;2022-12-29T05:11:45;99585.06;;;11.89;96.36
11525;BME280;5819;49.648;8.330;2022-12-29T05:14:13;99582.75;;;11.99;95.30
11525;BME280;5819;49.648;8.330;2022-12-29T05:16:42;99577.72;;;11.82;97.17
11525;BME280;5819;49.648;8.330;2022-12-29T05:19:10;99579.97;;;12.02;95.49
11525;BME280;5819;49.648;8.330;2022-12-29T05:21:38;99578.53;;;11.96;96.24
11525;BME280;5819;49.648;8.330;2022-12-29T05:24:07;99578.47;;;11.98;96.39
11525;BME280;5819;49.648;8.330;2022-12-29T05:26:35;99579.31;;;11.98;96.22
11525;BME280;5819;49.648;8.330;2022-12-29T05:29:24;99582.94;;;12.10;94.97
11525;BME280;5819;49.648;8.330;2022-12-29T05:31:52;99575.22;;;11.94;94.78
11525;BME280;5819;49.648;8.330;2022-12-29T05:34:20;99582.91;;;11.82;94.66
11525;BME280;5819;49.648;8.330;2022-12-29T05:36:48;99579.56;;;11.80;95.58
11525;BME280;5819;49.648;8.330;2022-12-29T05:39:16;99568.13;;;11.96;94.63
11525;BME280;5819;49.648;8.330;2022-12-29T05:41:49;99577.53;;;11.99;93.37
11525;BME280;5819;49.648;8.330;2022-12-29T05:44:27;99564.38;;;12.29;91.76
11525;BME280;5819;49.648;8.330;2022-12-29T05:47:14;99569.22;;;11.92;93.44
11525;BME280;5819;49.648;8.330;2022-12-29T05:50:03;99570.16;;;11.77;94.57
11525;BME280;5819;49.648;8.330;2022-12-29T05:52:54;99560.69;;;11.90;93.71
11525;BME280;5819;49.648;8.330;2022-12-29T05:55:22;99563.28;;;11.90;93.88
11525;BME280;5819;49.648;8.330;2022-12-29T05:57:52;99560.66;;;12.04;93.08
11525;BME280;5819;49.648;8.330;2022-12-29T06:00:21;99572.22;;;12.00;92.53
11525;BME280;5819;49.648;8.330;2022-12-29T06:02:49;99571.03;;;12.06;93.17
11525;BME280;5819;49.648;8.330;2022-12-29T06:05:18;99581.34;;;11.93;93.67
11525;BME280;5819;49.648;8.330;2022-12-29T06:07:46;99570.84;;;11.95;92.65
11525;BME280;5819;49.648;8.330;2022-12-29T06:10:16;99565.16;;;12.02;92.69
11525;BME280;5819;49.648;8.330;2022-12-29T06:12:53;99576.31;;;11.90;93.94
11525;BME280;5819;49.648;8.330;2022-12-29T06:15:22;99578.28;;;11.87;94.27
11525;BME280;5819;49.648;8.330;2022-12-29T06:17:50;99575.94;;;11.82;94.27
11525;BME280;5819;49.648;8.330;2022-12-29T06:20:17;99566.56;;;11.64;95.27
11525;BME280;5819;49.648;8.330;2022-12-29T06:22:46;99583.09;;;11.49;96.92
11525;BME280;5819;49.648;8.330;2022-12-29T06:25:15;99572.78;;;11.91;95.00
11525;BME280;5819;49.648;8.330;2022-12-29T06:27:43;99565.63;;;11.95;93.20
11525;BME280;5819;49.648;8.330;2022-12-29T06:30:12;99556.22;;;12.06;92.08
11525;BME280;5819;49.648;8.330;2022-12-29T06:32:44;99563.56;;;12.00;92.28
11525;BME280;5819;49.648;8.330;2022-12-29T06:35:12;99554.25;;;11.96;92.49
11525;BME280;5819;49.648;8.330;2022-12-29T06:37:49;99548.75;;;12.14;91.40
11525;BME280;5819;49.648;8.330;2022-12-29T06:40:16;99558.34;;;12.14;90.84
11525;BME280;5819;49.648;8.330;2022-12-29T06:43:13;99560.41;;;11.95;91.31
11525;BME280;5819;49.648;8.330;2022-12-29T06:45:57;99545.50;;;11.97;91.22
11525;BME280;5819;49.648;8.330;2022-12-29T06:48:26;99553.59;;;11.78;92.02
11525;BME280;5819;49.648;8.330;2022-12-29T06:50:54;99542.31;;;12.20;89.65
11525;BME280;5819;49.648;8.330;2022-12-29T06:53:22;99556.31;;;12.05;90.41
11525;BME280;5819;49.648;8.330;2022-12-29T06:55:50;99551.75;;;12.23;89.58
11525;BME280;5819;49.648;8.330;2022-12-29T06:58:17;99543.16;;;12.35;88.75
11525;BME280;5819;49.648;8.330;2022-12-29T07:00:45;99541.59;;;12.18;88.71
11525;BME280;5819;49.648;8.330;2022-12-29T07:03:13;99549.88;;;12.10;89.90
11525;BME280;5819;49.648;8.330;2022-12-29T07:05:43;99558.81;;;11.92;90.40
11525;BME280;5819;49.648;8.330;2022-12-29T07:08:11;99553.44;;;11.95;90.56
11525;BME280;5819;49.648;8.330;2022-12-29T07:10:39;99562.91;;;11.82;92.35
11525;BME280;5819;49.648;8.330;2022-12-29T07:13:07;99555.19;;;11.81;92.49
11525;BME280;5819;49.648;8.330;2022-12-29T07:15:36;99553.78;;;11.89;91.36
11525;BME280;5819;49.648;8.330;2022-12-29T07:18:04;99570.72;;;11.96;90.75
11525;BME280;5819;49.648;8.330;2022-12-29T07:20:32;99567.22;;;12.11;88.42
11525;BME280;5819;49.648;8.330;2022-12-29T07:23:01;99571.59;;;12.11;88.03
11525;BME280;5819;49.648;8.330;2022-12-29T07:25:29;99579.13;;;12.01;89.18
11525;BME280;5819;49.648;8.330;2022-12-29T07:27:57;99566.16;;;12.28;87.35
11525;BME280;5819;49.648;8.330;2022-12-29T07:30:25;99564.75;;;12.37;86.83
11525;BME280;5819;49.648;8.330;2022-12-29T07:32:53;99569.69;;;12.41;87.22
11525;BME280;5819;49.648;8.330;2022-12-29T07:35:21;99566.25;;;12.12;87.64
11525;BME280;5819;49.648;8.330;2022-12-29T07:37:48;99563.81;;;12.38;87.01
11525;BME280;5819;49.648;8.330;2022-12-29T07:40:18;99570.81;;;12.37;86.55
11525;BME280;5819;49.648;8.330;2022-12-29T07:42:45;99561.00;;;12.41;85.98
11525;BME280;5819;49.648;8.330;2022-12-29T07:45:15;99575.91;;;12.53;86.01
11525;BME280;5819;49.648;8.330;2022-12-29T07:48:02;99580.09;;;12.55;85.98
11525;BME280;5819;49.648;8.330;2022-12-29T07:50:30;99575.19;;;12.37;87.64
11525;BME280;5819;49.648;8.330;2022-12-29T07:52:58;99579.94;;;12.30;88.10
11525;BME280;5819;49.648;8.330;2022-12-29T07:55:27;99582.53;;;12.44;87.14
11525;BME280;5819;49.648;8.330;2022-12-29T07:57:55;99594.84;;;12.28;87.01
11525;BME280;5819;49.648;8.330;2022-12-29T08:00:23;99590.53;;;12.41;87.28
11525;BME280;5819;49.648;8.330;2022-12-29T08:02:52;99590.19;;;12.33;87.35
11525;BME280;5819;49.648;8.330;2022-12-29T08:05:20;99602.75;;;12.41;87.33
11525;BME280;5819;49.648;8.330;2022-12-29T08:07:48;99606.38;;;12.38;86.54
11525;BME280;5819;49.648;8.330;2022-12-29T08:10:16;99592.19;;;12.56;85.80
11525;BME280;5819;49.648;8.330;2022-12-29T08:12:45;99592.59;;;12.50;86.55
11525;BME280;5819;49.648;8.330;2022-12-29T08:15:13;99606.63;;;12.48;86.26
11525;BME280;5819;49.648;8.330;2022-12-29T08:17:41;99601.34;;;12.63;85.68
11525;BME280;5819;49.648;8.330;2022-12-29T08:20:09;99598.31;;;12.70;85.55
11525;BME280;5819;49.648;8.330;2022-12-29T08:22:37;99594.72;;;12.58;85.24
11525;BME280;5819;49.648;8.330;2022-12-29T08:25:05;99591.72;;;12.64;85.59
11525;BME280;5819;49.648;8.330;2022-12-29T08:27:33;99601.78;;;12.70;86.38
11525;BME280;5819;49.648;8.330;2022-12-29T08:30:03;99615.66;;;12.56;86.67
11525;BME280;5819;49.648;8.330;2022-12-29T08:32:31;99606.28;;;12.40;87.63
11525;BME280;5819;49.648;8.330;2022-12-29T08:35:00;99615.25;;;12.22;88.54
11525;BME280;5819;49.648;8.330;2022-12-29T08:37:27;99624.47;;;12.27;88.94
11525;BME280;5819;49.648;8.330;2022-12-29T08:39:57;99629.84;;;12.24;89.57
11525;BME280;5819;49.648;8.330;2022-12-29T08:42:26;99631.44;;;12.27;89.33
11525;BME280;5819;49.648;8.330;2022-12-29T08:44:57;99628.53;;;12.45;87.61
11525;BME280;5819;49.648;8.330;2022-12-29T08:47:26;99629.34;;;12.60;88.05
11525;BME280;5819;49.648;8.330;2022-12-29T08:49:54;99631.81;;;12.49;88.12
11525;BME280;5819;49.648;8.330;2022-12-29T08:52:22;99628.25;;;12.36;88.19
11525;BME280;5819;49.648;8.330;2022-12-29T08:54:50;99638.72;;;12.22;89.26
11525;BME280;5819;49.648;8.330;2022-12-29T08:57:18;99630.78;;;12.37;89.76
11525;BME280;5819;49.648;8.330;2022-12-29T08:59:58;99647.09;;;12.27;89.19
11525;BME280;5819;49.648;8.330;2022-12-29T09:02:27;99628.34;;;12.62;88.36
11525;BME280;5819;49.648;8.330;2022-12-29T09:04:55;99648.38;;;12.48;88.67
11525;BME280;5819;49.648;8.330;2022-12-29T09:07:23;99656.13;;;12.35;90.18
11525;BME280;5819;49.648;8.330;2022-12-29T09:09:51;99643.16;;;12.48;88.78
11525;BME280;5819;49.648;8.330;2022-12-29T09:12:19;99651.00;;;12.48;89.41
11525;BME280;5819;49.648;8.330;2022-12-29T09:14:47;99650.34;;;12.58;89.48
11525;BME280;5819;49.648;8.330;2022-12-29T09:17:14;99652.66;;;12.49;90.84
11525;BME280;5819;49.648;8.330;2022-12-29T09:20:02;99646.50;;;12.64;90.72
11525;BME280;5819;49.648;8.330;2022-12-29T09:22:30;99656.13;;;12.49;90.24
11525;BME280;5819;49.648;8.330;2022-12-29T09:24:58;99649.34;;;12.47;91.51
11525;BME280;5819;49.648;8.330;2022-12-29T09:27:25;99639.88;;;12.73;89.33
11525;BME280;5819;49.648;8.330;2022-12-29T09:29:53;99647.66;;;12.46;90.64
11525;BME280;5819;49.648;8.330;2022-12-29T09:32:21;99662.28;;;12.34;91.12
11525;BME280;5819;49.648;8.330;2022-12-29T09:34:50;99665.63;;;12.36;91.24
11525;BME280;5819;49.648;8.330;2022-12-29T09:37:19;99668.97;;;12.24;91.15
11525;BME280;5819;49.648;8.330;2022-12-29T09:39:48;99666.47;;;12.51;91.63
11525;BME280;5819;49.648;8.330;2022-12-29T09:42:24;99665.34;;;12.55;90.95
11525;BME280;5819;49.648;8.330;2022-12-29T09:45:03;99666.72;;;12.60;90.22
11525;BME280;5819;49.648;8.330;2022-12-29T09:47:32;99666.81;;;12.73;89.86
11525;BME280;5819;49.648;8.330;2022-12-29T09:50:02;99678.03;;;12.47;89.46
11525;BME280;5819;49.648;8.330;2022-12-29T09:52:36;99679.25;;;12.55;90.89
11525;BME280;5819;49.648;8.330;2022-12-29T09:55:10;99685.28;;;12.56;91.24
11525;BME280;5819;49.648;8.330;2022-12-29T09:57:42;99687.81;;;12.43;91.48
11525;BME280;5819;49.648;8.330;2022-12-29T10:00:14;99687.13;;;12.68;89.31
11525;BME280;5819;49.648;8.330;2022-12-29T10:02:46;99696.75;;;12.39;90.68
11525;BME280;5819;49.648;8.330;2022-12-29T10:05:27;99685.28;;;12.56;89.99
11525;BME280;5819;49.648;8.330;2022-12-29T10:08:10;99689.09;;;12.64;89.30
11525;BME280;5819;49.648;8.330;2022-12-29T10:10:50;99678.75;;;12.77;89.58
11525;BME280;5819;49.648;8.330;2022-12-29T10:13:36;99680.06;;;12.70;90.78
11525;BME280;5819;49.648;8.330;2022-12-29T10:16:14;99684.06;;;12.76;88.99
11525;BME280;5819;49.648;8.330;2022-12-29T10:21:48;99694.59;;;12.74;89.46
11525;BME280;5819;49.648;8.330;2022-12-29T10:24:24;99694.59;;;12.74;90.27
11525;BME280;5819;49.648;8.330;2022-12-29T10:26:55;99698.59;;;12.65;89.04
11525;BME280;5819;49.648;8.330;2022-12-29T10:29:27;99699.16;;;12.56;90.39
11525;BME280;5819;49.648;8.330;2022-12-29T10:32:02;99704.97;;;12.47;92.36
11525;BME280;5819;49.648;8.330;2022-12-29T10:34:36;99713.06;;;12.43;92.33
11525;BME280;5819;49.648;8.330;2022-12-29T10:37:10;99722.34;;;12.18;94.31
11525;BME280;5819;49.648;8.330;2022-12-29T10:39:45;99732.97;;;12.15;99.25
11525;BME280;5819;49.648;8.330;2022-12-29T10:42:16;99751.81;;;12.05;100.00
11525;BME280;5819;49.648;8.330;2022-12-29T10:44:48;99751.31;;;11.53;100.00
11525;BME280;5819;49.648;8.330;2022-12-29T10:47:19;99760.56;;;11.27;100.00
11525;BME280;5819;49.648;8.330;2022-12-29T10:49:49;99759.09;;;10.90;100.00
11525;BME280;5819;49.648;8.330;2022-12-29T10:52:19;99752.84;;;10.77;100.00
11525;BME280;5819;49.648;8.330;2022-12-29T10:54:54;99745.69;;;10.65;100.00
11525;BME280;5819;49.648;8.330;2022-12-29T10:57:26;99746.16;;;10.56;100.00
11525;BME280;5819;49.648;8.330;2022-12-29T10:59:56;99756.06;;;10.49;100.00
11525;BME280;5819;49.648;8.330;2022-12-29T11:02:38;99771.97;;;10.43;100.00
11525;BME280;5819;49.648;8.330;2022-12-29T11:05:15;99755.16;;;10.33;100.00
11525;BME280;5819;49.648;8.330;2022-12-29T11:07:47;99729.34;;;10.30;100.00
11525;BME280;5819;49.648;8.330;2022-12-29T11:10:20;99735.97;;;10.36;100.00
11525;BME280;5819;49.648;8.330;2022-12-29T11:12:56;99740.94;;;10.40;100.00
11525;BME280;5819;49.648;8.330;2022-12-29T11:15:24;99748.44;;;10.46;100.00
11525;BME280;5819;49.648;8.330;2022-12-29T11:17:56;99736.53;;;10.58;100.00
11525;BME280;5819;49.648;8.330;2022-12-29T11:20:29;99742.16;;;10.83;100.00
11525;BME280;5819;49.648;8.330;2022-12-29T11:22:58;99747.06;;;10.88;100.00
11525;BME280;5819;49.648;8.330;2022-12-29T11:25:27;99750.41;;;11.22;100.00
11525;BME280;5819;49.648;8.330;2022-12-29T11:27:56;99755.75;;;11.19;100.00
11525;BME280;5819;49.648;8.330;2022-12-29T11:30:27;99755.59;;;11.22;100.00
11525;BME280;5819;49.648;8.330;2022-12-29T11:32:56;99769.53;;;11.06;100.00
11525;BME280;5819;49.648;8.330;2022-12-29T11:35:32;99764.31;;;11.06;100.00
11525;BME280;5819;49.648;8.330;2022-12-29T11:38:01;99792.13;;;11.05;100.00
11525;BME280;5819;49.648;8.330;2022-12-29T11:40:31;99772.81;;;11.09;100.00
11525;BME280;5819;49.648;8.330;2022-12-29T11:43:05;99778.84;;;10.94;100.00
11525;BME280;5819;49.648;8.330;2022-12-29T11:45:34;99773.88;;;10.90;100.00
11525;BME280;5819;49.648;8.330;2022-12-29T11:48:07;99768.91;;;10.85;100.00
11525;BME280;5819;49.648;8.330;2022-12-29T11:50:39;99765.13;;;10.75;100.00
11525;BME280;5819;49.648;8.330;2022-12-29T11:53:15;99769.72;;;10.70;100.00
11525;BME280;5819;49.648;8.330;2022-12-29T11:55:52;99763.91;;;10.65;100.00
11525;BME280;5819;49.648;8.330;2022-12-29T11:58:20;99759.22;;;10.71;100.00
11525;BME280;5819;49.648;8.330;2022-12-29T12:00:49;99765.47;;;10.85;100.00
11525;BME280;5819;49.648;8.330;2022-12-29T12:03:20;99769.41;;;10.92;100.00
11525;BME280;5819;49.648;8.330;2022-12-29T12:05:51;99767.09;;;11.03;100.00
11525;BME280;5819;49.648;8.330;2022-12-29T12:08:31;99770.03;;;11.12;100.00
11525;BME280;5819;49.648;8.330;2022-12-29T12:11:06;99769.97;;;11.14;100.00
11525;BME280;5819;49.648;8.330;2022-12-29T12:13:41;99759.97;;;11.22;100.00
11525;BME280;5819;49.648;8.330;2022-12-29T12:16:15;99761.66;;;11.23;100.00
11525;BME280;5819;49.648;8.330;2022-12-29T12:18:48;99763.50;;;11.37;100.00
11525;BME280;5819;49.648;8.330;2022-12-29T12:21:23;99757.19;;;11.41;100.00
11525;BME280;5819;49.648;8.330;2022-12-29T12:24:11;99753.25;;;11.49;100.00
11525;BME280;5819;49.648;8.330;2022-12-29T12:26:55;99747.97;;;11.51;100.00
11525;BME280;5819;49.648;8.330;2022-12-29T12:29:28;99748.63;;;11.54;100.00
11525;BME280;5819;49.648;8.330;2022-12-29T12:32:02;99747.94;;;11.66;100.00
11525;BME280;5819;49.648;8.330;2022-12-29T12:34:35;99747.16;;;11.80;100.00
11525;BME280;5819;49.648;8.330;2022-12-29T12:37:27;99746.44;;;11.78;100.00
11525;BME280;5819;49.648;8.330;2022-12-29T12:40:09;99741.28;;;11.77;100.00
11525;BME280;5819;49.648;8.330;2022-12-29T12:42:50;99733.72;;;11.72;100.00
11525;BME280;5819;49.648;8.330;2022-12-29T12:45:36;99732.75;;;11.75;100.00
11525;BME280;5819;49.648;8.330;2022-12-29T12:48:22;99733.41;;;11.78;100.00
11525;BME280;5819;49.648;8.330;2022-12-29T12:51:02;99732.19;;;11.84;100.00
11525;BME280;5819;49.648;8.330;2022-12-29T12:53:41;99725.88;;;11.88;100.00
11525;BME280;5819;49.648;8.330;2022-12-29T12:56:44;99711.41;;;11.98;100.00
11525;BME280;5819;49.648;8.330;2022-12-29T12:59:25;99702.88;;;11.80;100.00
11525;BME280;5819;49.648;8.330;2022-12-29T13:02:01;99710.22;;;11.73;100.00
11525;BME280;5819;49.648;8.330;2022-12-29T13:04:52;99698.69;;;11.78;100.00
11525;BME280;5819;49.648;8.330;2022-12-29T13:07:31;99709.50;;;11.70;100.00
11525;BME280;5819;49.648;8.330;2022-12-29T13:10:18;99707.16;;;11.81;100.00
11525;BME280;5819;49.648;8.330;2022-12-29T13:12:51;99717.50;;;11.67;100.00
11525;BME280;5819;49.648;8.330;2022-12-29T13:15:37;99718.63;;;11.63;100.00
11525;BME280;5819;49.648;8.330;2022-12-29T13:18:16;99719.72;;;11.75;100.00
11525;BME280;5819;49.648;8.330;2022-12-29T13:20:51;99722.06;;;11.79;100.00
11525;BME280;5819;49.648;8.330;2022-12-29T13:23:26;99712.09;;;11.86;100.00
11525;BME280;5819;49.648;8.330;2022-12-29T13:26:02;99720.13;;;11.67;100.00
11525;BME280;5819;49.648;8.330;2022-12-29T13:28:35;99720.13;;;11.67;100.00
11525;BME280;5819;49.648;8.330;2022-12-29T13:31:12;99721.97;;;11.65;100.00
11525;BME280;5819;49.648;8.330;2022-12-29T13:33:50;99717.66;;;11.64;100.00
11525;BME280;5819;49.648;8.330;2022-12-29T13:36:24;99704.47;;;11.83;96.56
11525;BME280;5819;49.648;8.330;2022-12-29T13:39:01;99709.28;;;11.75;99.80
11525;BME280;5819;49.648;8.330;2022-12-29T13:41:33;99714.66;;;11.56;99.95